Nickerson, NE (68044)

9:01 PM CDT on August 27, 2016 (GMT -0500)
Nickerson | | Change Station

Elev 1253 ft 41.51 °N, 96.47 °W | Updated 14 seconds ago

Clear
Clear
71.4 °F
Feels Like 71.4 °F
N
0.0
Wind Variable Wind from SSE
Gusts 0.0 mph

Today
High -- | Low -- °F
--% Chance of Precip.
Yesterday
High -- | Low -- °F
Precip. -- in
Pressure 30.02 in
Visibility 10.0 miles
Clouds Clear
Dew Point 68 °F
Humidity 89%
Rainfall 0.02 in
Snow Depth Not available.
6:47 AM 8:06 PM
Waning Crescent, 19% visible
METAR KFET 280155Z AUTO 09003KT 10SM CLR 24/19 A3002 RMK AO2 T02380190
Pressure 30.02 in
Visibility 10.0 miles
Clouds Clear
Dew Point 68 °F
Humidity 89%
Rainfall 0.02 in
Snow Depth Not available.
6:47 AM 8:06 PM
Waning Crescent, 19% visible
METAR KFET 280155Z AUTO 09003KT 10SM CLR 24/19 A3002 RMK AO2 T02380190

10-Day Weather Forecast

Almanac

Astronomy

Aug. 27, 2016 Rise Set
Actual Time
Civil Twilight
Nautical Twilight
Astronomical Twilight
Moon
Length of Visible Light
Length of Day
Tomorrow will be .
, % of the Moon is Illuminated

Today's Extremes

State Highs State Lows

Community

WunderPhotos

Upload Photos

1,935,491 photos uploaded!

WunderBlog® & News

Nearby

Air Quality

  Air Quality AQ Index Pollutant
Not available.

Snow Depth

Station Depth Elevation

Earthquake Activity

City Distance Mag. Time & Date
Minimum magnitude displayed is 2.5.

Coastal Water Temperatures

Place Temperature

Stations

Nearby Weather Stations

Station Location Temp. Windchill Dew Point Humidity Wind Precip. Elev Updated Type
                   

Watches & Warnings

There are currently no watches in effect.